sensor_id;sensor_type;location;lat;lon;timestamp;P1;durP1;ratioP1;P2;durP2;ratioP2
48613;SDS011;34408;51.426;5.444;2023-12-04T00:01:49;16.17;;;9.00;;
48613;SDS011;34408;51.426;5.444;2023-12-04T00:04:17;14.80;;;8.75;;
48613;SDS011;34408;51.426;5.444;2023-12-04T00:06:45;19.58;;;9.70;;
48613;SDS011;34408;51.426;5.444;2023-12-04T00:09:14;14.38;;;8.55;;
48613;SDS011;34408;51.426;5.444;2023-12-04T00:11:42;16.17;;;9.40;;
48613;SDS011;34408;51.426;5.444;2023-12-04T00:14:10;15.88;;;8.68;;
48613;SDS011;34408;51.426;5.444;2023-12-04T00:16:38;14.40;;;8.85;;
48613;SDS011;34408;51.426;5.444;2023-12-04T00:19:05;17.30;;;9.48;;
48613;SDS011;34408;51.426;5.444;2023-12-04T00:21:34;15.48;;;9.27;;
48613;SDS011;34408;51.426;5.444;2023-12-04T00:24:01;13.73;;;8.23;;
48613;SDS011;34408;51.426;5.444;2023-12-04T00:26:31;13.20;;;7.85;;
48613;SDS011;34408;51.426;5.444;2023-12-04T00:28:59;14.48;;;8.45;;
48613;SDS011;34408;51.426;5.444;2023-12-04T00:31:27;14.77;;;8.45;;
48613;SDS011;34408;51.426;5.444;2023-12-04T00:33:55;14.27;;;8.35;;
48613;SDS011;34408;51.426;5.444;2023-12-04T00:36:23;12.82;;;7.78;;
48613;SDS011;34408;51.426;5.444;2023-12-04T00:38:51;15.32;;;9.15;;
48613;SDS011;34408;51.426;5.444;2023-12-04T00:41:18;14.52;;;8.90;;
48613;SDS011;34408;51.426;5.444;2023-12-04T00:43:47;15.13;;;9.05;;
48613;SDS011;34408;51.426;5.444;2023-12-04T00:46:15;14.80;;;8.55;;
48613;SDS011;34408;51.426;5.444;2023-12-04T00:48:43;13.90;;;8.35;;
48613;SDS011;34408;51.426;5.444;2023-12-04T00:51:12;13.90;;;8.38;;
48613;SDS011;34408;51.426;5.444;2023-12-04T00:53:40;14.02;;;9.07;;
48613;SDS011;34408;51.426;5.444;2023-12-04T00:56:08;15.20;;;8.38;;
48613;SDS011;34408;51.426;5.444;2023-12-04T00:58:37;13.77;;;8.10;;
48613;SDS011;34408;51.426;5.444;2023-12-04T01:01:06;12.35;;;7.78;;
48613;SDS011;34408;51.426;5.444;2023-12-04T01:03:35;13.77;;;7.85;;
48613;SDS011;34408;51.426;5.444;2023-12-04T01:06:03;13.35;;;7.45;;
48613;SDS011;34408;51.426;5.444;2023-12-04T01:08:31;13.45;;;8.15;;
48613;SDS011;34408;51.426;5.444;2023-12-04T01:10:59;12.82;;;7.93;;
48613;SDS011;34408;51.426;5.444;2023-12-04T01:13:27;14.07;;;7.80;;
48613;SDS011;34408;51.426;5.444;2023-12-04T01:15:55;13.68;;;7.97;;
48613;SDS011;34408;51.426;5.444;2023-12-04T01:18:24;12.95;;;7.85;;
48613;SDS011;34408;51.426;5.444;2023-12-04T01:20:52;13.60;;;8.65;;
48613;SDS011;34408;51.426;5.444;2023-12-04T01:23:20;13.45;;;8.05;;
48613;SDS011;34408;51.426;5.444;2023-12-04T01:25:47;13.98;;;7.40;;
48613;SDS011;34408;51.426;5.444;2023-12-04T01:28:15;11.52;;;7.43;;
48613;SDS011;34408;51.426;5.444;2023-12-04T01:30:43;14.10;;;7.60;;
48613;SDS011;34408;51.426;5.444;2023-12-04T01:33:11;14.07;;;8.23;;
48613;SDS011;34408;51.426;5.444;2023-12-04T01:35:40;13.13;;;7.82;;
48613;SDS011;34408;51.426;5.444;2023-12-04T01:38:08;12.90;;;7.28;;
48613;SDS011;34408;51.426;5.444;2023-12-04T01:40:36;12.73;;;7.93;;
48613;SDS011;34408;51.426;5.444;2023-12-04T01:43:03;12.63;;;7.63;;
48613;SDS011;34408;51.426;5.444;2023-12-04T01:45:31;12.70;;;7.15;;
48613;SDS011;34408;51.426;5.444;2023-12-04T01:47:59;13.57;;;7.68;;
48613;SDS011;34408;51.426;5.444;2023-12-04T01:50:27;13.00;;;7.80;;
48613;SDS011;34408;51.426;5.444;2023-12-04T01:52:57;13.75;;;7.47;;
48613;SDS011;34408;51.426;5.444;2023-12-04T01:55:25;13.15;;;7.55;;
48613;SDS011;34408;51.426;5.444;2023-12-04T01:57:52;14.52;;;8.05;;
48613;SDS011;34408;51.426;5.444;2023-12-04T02:00:22;11.70;;;6.93;;
48613;SDS011;34408;51.426;5.444;2023-12-04T02:02:50;12.68;;;7.35;;
48613;SDS011;34408;51.426;5.444;2023-12-04T02:05:18;14.65;;;8.02;;
48613;SDS011;34408;51.426;5.444;2023-12-04T02:07:48;11.20;;;7.13;;
48613;SDS011;34408;51.426;5.444;2023-12-04T02:10:17;12.68;;;7.53;;
48613;SDS011;34408;51.426;5.444;2023-12-04T02:12:45;12.43;;;7.65;;
48613;SDS011;34408;51.426;5.444;2023-12-04T02:15:13;14.10;;;6.97;;
48613;SDS011;34408;51.426;5.444;2023-12-04T02:17:41;12.95;;;7.05;;
48613;SDS011;34408;51.426;5.444;2023-12-04T02:20:12;13.07;;;7.22;;
48613;SDS011;34408;51.426;5.444;2023-12-04T02:22:40;12.43;;;6.50;;
48613;SDS011;34408;51.426;5.444;2023-12-04T02:25:10;11.07;;;6.82;;
48613;SDS011;34408;51.426;5.444;2023-12-04T02:27:43;11.80;;;6.68;;
48613;SDS011;34408;51.426;5.444;2023-12-04T02:30:14;12.88;;;7.38;;
48613;SDS011;34408;51.426;5.444;2023-12-04T02:32:46;14.02;;;7.80;;
48613;SDS011;34408;51.426;5.444;2023-12-04T02:35:16;12.38;;;6.90;;
48613;SDS011;34408;51.426;5.444;2023-12-04T02:37:47;11.85;;;6.88;;
48613;SDS011;34408;51.426;5.444;2023-12-04T02:40:17;14.32;;;7.38;;
48613;SDS011;34408;51.426;5.444;2023-12-04T02:42:45;11.55;;;7.32;;
48613;SDS011;34408;51.426;5.444;2023-12-04T02:45:13;11.02;;;7.10;;
48613;SDS011;34408;51.426;5.444;2023-12-04T02:47:41;12.65;;;6.95;;
48613;SDS011;34408;51.426;5.444;2023-12-04T02:50:09;11.13;;;6.32;;
48613;SDS011;34408;51.426;5.444;2023-12-04T02:52:37;13.82;;;6.68;;
48613;SDS011;34408;51.426;5.444;2023-12-04T02:55:05;11.32;;;6.50;;
48613;SDS011;34408;51.426;5.444;2023-12-04T02:57:34;11.10;;;6.35;;
48613;SDS011;34408;51.426;5.444;2023-12-04T03:00:02;12.55;;;7.05;;
48613;SDS011;34408;51.426;5.444;2023-12-04T03:02:31;11.23;;;6.75;;
48613;SDS011;34408;51.426;5.444;2023-12-04T03:04:59;11.70;;;6.70;;
48613;SDS011;34408;51.426;5.444;2023-12-04T03:07:27;13.00;;;6.93;;
48613;SDS011;34408;51.426;5.444;2023-12-04T03:09:56;13.52;;;6.88;;
48613;SDS011;34408;51.426;5.444;2023-12-04T03:12:24;11.80;;;6.82;;
48613;SDS011;34408;51.426;5.444;2023-12-04T03:14:53;12.52;;;7.18;;
48613;SDS011;34408;51.426;5.444;2023-12-04T03:17:20;11.52;;;7.18;;
48613;SDS011;34408;51.426;5.444;2023-12-04T03:19:48;10.48;;;6.65;;
48613;SDS011;34408;51.426;5.444;2023-12-04T03:22:17;12.27;;;6.50;;
48613;SDS011;34408;51.426;5.444;2023-12-04T03:24:45;11.73;;;6.30;;
48613;SDS011;34408;51.426;5.444;2023-12-04T03:27:13;10.25;;;6.55;;
48613;SDS011;34408;51.426;5.444;2023-12-04T03:29:40;12.45;;;6.65;;
48613;SDS011;34408;51.426;5.444;2023-12-04T03:32:09;13.73;;;7.35;;
48613;SDS011;34408;51.426;5.444;2023-12-04T03:34:37;10.77;;;6.95;;
48613;SDS011;34408;51.426;5.444;2023-12-04T03:37:05;14.20;;;7.43;;
48613;SDS011;34408;51.426;5.444;2023-12-04T03:39:33;8.93;;;5.82;;
48613;SDS011;34408;51.426;5.444;2023-12-04T03:42:01;11.15;;;6.68;;
48613;SDS011;34408;51.426;5.444;2023-12-04T03:44:29;12.55;;;7.30;;
48613;SDS011;34408;51.426;5.444;2023-12-04T03:46:56;11.00;;;6.85;;
48613;SDS011;34408;51.426;5.444;2023-12-04T03:49:25;10.30;;;6.45;;
48613;SDS011;34408;51.426;5.444;2023-12-04T03:51:54;11.20;;;6.53;;
48613;SDS011;34408;51.426;5.444;2023-12-04T03:54:22;11.98;;;6.68;;
48613;SDS011;34408;51.426;5.444;2023-12-04T03:56:50;9.35;;;5.72;;
48613;SDS011;34408;51.426;5.444;2023-12-04T03:59:18;11.43;;;6.35;;
48613;SDS011;34408;51.426;5.444;2023-12-04T04:01:46;13.10;;;6.95;;
48613;SDS011;34408;51.426;5.444;2023-12-04T04:04:14;11.77;;;6.25;;
48613;SDS011;34408;51.426;5.444;2023-12-04T04:06:43;10.35;;;6.15;;
48613;SDS011;34408;51.426;5.444;2023-12-04T04:09:11;10.15;;;6.53;;
48613;SDS011;34408;51.426;5.444;2023-12-04T04:11:38;10.55;;;6.10;;
48613;SDS011;34408;51.426;5.444;2023-12-04T04:14:07;10.40;;;6.55;;
48613;SDS011;34408;51.426;5.444;2023-12-04T04:16:34;11.65;;;6.40;;
48613;SDS011;34408;51.426;5.444;2023-12-04T04:19:02;12.07;;;6.85;;
48613;SDS011;34408;51.426;5.444;2023-12-04T04:21:30;12.40;;;6.68;;
48613;SDS011;34408;51.426;5.444;2023-12-04T04:24:00;10.00;;;6.30;;
48613;SDS011;34408;51.426;5.444;2023-12-04T04:26:27;11.55;;;6.75;;
48613;SDS011;34408;51.426;5.444;2023-12-04T04:28:55;9.98;;;6.28;;
48613;SDS011;34408;51.426;5.444;2023-12-04T04:31:23;10.05;;;6.07;;
48613;SDS011;34408;51.426;5.444;2023-12-04T04:33:51;11.25;;;6.68;;
48613;SDS011;34408;51.426;5.444;2023-12-04T04:36:19;10.15;;;6.13;;
48613;SDS011;34408;51.426;5.444;2023-12-04T04:38:46;10.05;;;6.55;;
48613;SDS011;34408;51.426;5.444;2023-12-04T04:41:16;12.18;;;7.07;;
48613;SDS011;34408;51.426;5.444;2023-12-04T04:43:44;8.90;;;5.97;;
48613;SDS011;34408;51.426;5.444;2023-12-04T04:46:11;11.05;;;6.38;;
48613;SDS011;34408;51.426;5.444;2023-12-04T04:48:39;10.38;;;6.20;;
48613;SDS011;34408;51.426;5.444;2023-12-04T04:51:07;11.27;;;6.65;;
48613;SDS011;34408;51.426;5.444;2023-12-04T04:53:35;11.07;;;6.05;;
48613;SDS011;34408;51.426;5.444;2023-12-04T04:56:03;9.70;;;5.78;;
48613;SDS011;34408;51.426;5.444;2023-12-04T04:58:33;9.82;;;6.03;;
48613;SDS011;34408;51.426;5.444;2023-12-04T05:01:01;9.15;;;5.93;;
48613;SDS011;34408;51.426;5.444;2023-12-04T05:03:29;9.50;;;6.00;;
48613;SDS011;34408;51.426;5.444;2023-12-04T05:05:57;10.93;;;6.57;;
48613;SDS011;34408;51.426;5.444;2023-12-04T05:08:25;11.88;;;6.90;;
48613;SDS011;34408;51.426;5.444;2023-12-04T05:10:53;11.02;;;6.30;;
48613;SDS011;34408;51.426;5.444;2023-12-04T05:13:21;8.15;;;5.38;;
48613;SDS011;34408;51.426;5.444;2023-12-04T05:15:50;10.35;;;6.00;;
48613;SDS011;34408;51.426;5.444;2023-12-04T05:18:17;11.73;;;6.25;;
48613;SDS011;34408;51.426;5.444;2023-12-04T05:20:45;10.85;;;6.18;;
48613;SDS011;34408;51.426;5.444;2023-12-04T05:23:13;10.98;;;6.40;;
48613;SDS011;34408;51.426;5.444;2023-12-04T05:25:41;12.23;;;6.30;;
48613;SDS011;34408;51.426;5.444;2023-12-04T05:28:15;10.98;;;6.15;;
48613;SDS011;34408;51.426;5.444;2023-12-04T05:30:43;9.77;;;5.72;;
48613;SDS011;34408;51.426;5.444;2023-12-04T05:33:13;10.60;;;5.97;;
48613;SDS011;34408;51.426;5.444;2023-12-04T05:35:40;9.90;;;6.40;;
48613;SDS011;34408;51.426;5.444;2023-12-04T05:38:08;9.15;;;5.90;;
48613;SDS011;34408;51.426;5.444;2023-12-04T05:40:36;9.85;;;5.85;;
48613;SDS011;34408;51.426;5.444;2023-12-04T05:43:04;9.45;;;5.47;;
48613;SDS011;34408;51.426;5.444;2023-12-04T05:45:31;11.80;;;6.13;;
48613;SDS011;34408;51.426;5.444;2023-12-04T05:47:59;9.35;;;5.88;;
48613;SDS011;34408;51.426;5.444;2023-12-04T05:50:29;9.90;;;5.78;;
48613;SDS011;34408;51.426;5.444;2023-12-04T05:52:56;11.35;;;5.90;;
48613;SDS011;34408;51.426;5.444;2023-12-04T05:55:25;8.77;;;5.63;;
48613;SDS011;34408;51.426;5.444;2023-12-04T05:57:53;9.10;;;5.72;;
48613;SDS011;34408;51.426;5.444;2023-12-04T06:00:21;10.05;;;5.40;;
48613;SDS011;34408;51.426;5.444;2023-12-04T06:02:53;10.73;;;6.28;;
48613;SDS011;34408;51.426;5.444;2023-12-04T06:05:21;8.98;;;5.45;;
48613;SDS011;34408;51.426;5.444;2023-12-04T06:07:51;10.38;;;5.97;;
48613;SDS011;34408;51.426;5.444;2023-12-04T06:10:18;9.10;;;5.57;;
48613;SDS011;34408;51.426;5.444;2023-12-04T06:12:46;9.10;;;5.55;;
48613;SDS011;34408;51.426;5.444;2023-12-04T06:15:14;9.73;;;5.70;;
48613;SDS011;34408;51.426;5.444;2023-12-04T06:17:42;9.40;;;6.13;;
48613;SDS011;34408;51.426;5.444;2023-12-04T06:20:10;9.95;;;5.00;;
48613;SDS011;34408;51.426;5.444;2023-12-04T06:22:39;7.93;;;5.10;;
48613;SDS011;34408;51.426;5.444;2023-12-04T06:25:09;9.18;;;5.07;;
48613;SDS011;34408;51.426;5.444;2023-12-04T06:27:38;9.52;;;5.70;;
48613;SDS011;34408;51.426;5.444;2023-12-04T06:30:06;8.65;;;4.78;;
48613;SDS011;34408;51.426;5.444;2023-12-04T06:32:35;10.88;;;5.05;;
48613;SDS011;34408;51.426;5.444;2023-12-04T06:35:03;9.38;;;5.70;;
48613;SDS011;34408;51.426;5.444;2023-12-04T06:37:32;9.30;;;5.20;;
48613;SDS011;34408;51.426;5.444;2023-12-04T06:40:00;6.95;;;4.70;;
48613;SDS011;34408;51.426;5.444;2023-12-04T06:42:31;9.20;;;5.70;;
48613;SDS011;34408;51.426;5.444;2023-12-04T06:44:59;8.55;;;5.32;;
48613;SDS011;34408;51.426;5.444;2023-12-04T06:47:27;7.90;;;5.07;;
48613;SDS011;34408;51.426;5.444;2023-12-04T06:49:57;8.40;;;5.40;;
48613;SDS011;34408;51.426;5.444;2023-12-04T06:52:25;8.27;;;5.05;;
48613;SDS011;34408;51.426;5.444;2023-12-04T06:54:52;9.40;;;5.47;;
48613;SDS011;34408;51.426;5.444;2023-12-04T06:57:20;7.50;;;4.97;;
48613;SDS011;34408;51.426;5.444;2023-12-04T06:59:49;11.00;;;5.80;;
48613;SDS011;34408;51.426;5.444;2023-12-04T07:02:17;8.13;;;4.65;;
48613;SDS011;34408;51.426;5.444;2023-12-04T07:04:45;9.05;;;4.80;;
48613;SDS011;34408;51.426;5.444;2023-12-04T07:07:14;7.47;;;4.82;;
48613;SDS011;34408;51.426;5.444;2023-12-04T07:09:42;7.22;;;4.90;;
48613;SDS011;34408;51.426;5.444;2023-12-04T07:12:10;6.88;;;4.88;;
48613;SDS011;34408;51.426;5.444;2023-12-04T07:14:37;7.85;;;4.57;;
48613;SDS011;34408;51.426;5.444;2023-12-04T07:17:07;8.98;;;4.80;;
48613;SDS011;34408;51.426;5.444;2023-12-04T07:19:34;7.20;;;4.65;;
48613;SDS011;34408;51.426;5.444;2023-12-04T07:22:03;9.85;;;5.22;;
48613;SDS011;34408;51.426;5.444;2023-12-04T07:24:30;7.13;;;4.57;;
48613;SDS011;34408;51.426;5.444;2023-12-04T07:26:59;6.45;;;4.43;;
48613;SDS011;34408;51.426;5.444;2023-12-04T07:29:27;7.32;;;4.35;;
48613;SDS011;34408;51.426;5.444;2023-12-04T07:31:55;7.50;;;4.05;;
48613;SDS011;34408;51.426;5.444;2023-12-04T07:34:24;6.13;;;4.28;;
48613;SDS011;34408;51.426;5.444;2023-12-04T07:36:53;6.22;;;4.10;;
48613;SDS011;34408;51.426;5.444;2023-12-04T07:39:20;6.72;;;4.35;;
48613;SDS011;34408;51.426;5.444;2023-12-04T07:41:48;5.50;;;3.80;;
48613;SDS011;34408;51.426;5.444;2023-12-04T07:44:16;7.43;;;4.68;;
48613;SDS011;34408;51.426;5.444;2023-12-04T07:46:44;9.15;;;4.40;;
48613;SDS011;34408;51.426;5.444;2023-12-04T07:49:12;6.55;;;4.10;;
48613;SDS011;34408;51.426;5.444;2023-12-04T07:51:42;6.63;;;3.83;;
48613;SDS011;34408;51.426;5.444;2023-12-04T07:54:10;7.53;;;4.18;;
48613;SDS011;34408;51.426;5.444;2023-12-04T07:56:38;7.93;;;4.32;;
48613;SDS011;34408;51.426;5.444;2023-12-04T07:59:06;7.03;;;4.70;;
48613;SDS011;34408;51.426;5.444;2023-12-04T08:01:33;6.18;;;4.18;;
48613;SDS011;34408;51.426;5.444;2023-12-04T08:04:02;9.68;;;4.45;;
48613;SDS011;34408;51.426;5.444;2023-12-04T08:06:30;6.03;;;3.90;;
48613;SDS011;34408;51.426;5.444;2023-12-04T08:08:59;7.82;;;4.30;;
48613;SDS011;34408;51.426;5.444;2023-12-04T08:11:27;6.65;;;4.22;;
48613;SDS011;34408;51.426;5.444;2023-12-04T08:13:55;7.03;;;3.63;;
48613;SDS011;34408;51.426;5.444;2023-12-04T08:16:23;5.90;;;3.72;;
48613;SDS011;34408;51.426;5.444;2023-12-04T08:18:51;9.77;;;4.32;;
48613;SDS011;34408;51.426;5.444;2023-12-04T08:21:19;6.65;;;3.78;;
48613;SDS011;34408;51.426;5.444;2023-12-04T08:23:47;7.47;;;4.13;;
48613;SDS011;34408;51.426;5.444;2023-12-04T08:26:21;7.18;;;3.97;;
48613;SDS011;34408;51.426;5.444;2023-12-04T08:28:50;6.03;;;3.83;;
48613;SDS011;34408;51.426;5.444;2023-12-04T08:31:18;4.88;;;3.28;;
48613;SDS011;34408;51.426;5.444;2023-12-04T08:33:46;6.85;;;4.13;;
48613;SDS011;34408;51.426;5.444;2023-12-04T08:36:14;6.53;;;4.28;;
48613;SDS011;34408;51.426;5.444;2023-12-04T08:38:43;5.50;;;3.83;;
48613;SDS011;34408;51.426;5.444;2023-12-04T08:41:10;6.40;;;3.83;;
48613;SDS011;34408;51.426;5.444;2023-12-04T08:43:39;6.50;;;3.80;;
48613;SDS011;34408;51.426;5.444;2023-12-04T08:46:12;7.88;;;4.38;;
48613;SDS011;34408;51.426;5.444;2023-12-04T08:48:40;7.45;;;4.57;;
48613;SDS011;34408;51.426;5.444;2023-12-04T08:51:14;8.15;;;4.85;;
48613;SDS011;34408;51.426;5.444;2023-12-04T08:53:42;8.55;;;4.35;;
48613;SDS011;34408;51.426;5.444;2023-12-04T08:56:10;6.57;;;4.15;;
48613;SDS011;34408;51.426;5.444;2023-12-04T08:58:46;6.43;;;3.80;;
48613;SDS011;34408;51.426;5.444;2023-12-04T09:01:16;6.95;;;4.47;;
48613;SDS011;34408;51.426;5.444;2023-12-04T09:03:44;6.28;;;4.20;;
48613;SDS011;34408;51.426;5.444;2023-12-04T09:06:12;6.18;;;3.70;;
48613;SDS011;34408;51.426;5.444;2023-12-04T09:08:41;6.85;;;3.97;;
48613;SDS011;34408;51.426;5.444;2023-12-04T09:11:20;9.65;;;4.40;;
48613;SDS011;34408;51.426;5.444;2023-12-04T09:13:51;6.18;;;4.10;;
48613;SDS011;34408;51.426;5.444;2023-12-04T09:16:19;8.15;;;4.20;;
48613;SDS011;34408;51.426;5.444;2023-12-04T09:18:46;7.03;;;4.18;;
48613;SDS011;34408;51.426;5.444;2023-12-04T09:21:15;6.90;;;4.32;;
48613;SDS011;34408;51.426;5.444;2023-12-04T09:23:43;8.38;;;4.68;;
48613;SDS011;34408;51.426;5.444;2023-12-04T09:26:16;7.25;;;4.05;;
48613;SDS011;34408;51.426;5.444;2023-12-04T09:28:44;6.80;;;4.03;;
48613;SDS011;34408;51.426;5.444;2023-12-04T09:31:14;7.03;;;4.15;;
48613;SDS011;34408;51.426;5.444;2023-12-04T09:33:42;6.90;;;4.40;;
48613;SDS011;34408;51.426;5.444;2023-12-04T09:36:10;8.13;;;4.38;;
48613;SDS011;34408;51.426;5.444;2023-12-04T09:38:38;7.13;;;4.03;;
48613;SDS011;34408;51.426;5.444;2023-12-04T09:41:06;5.88;;;4.07;;
48613;SDS011;34408;51.426;5.444;2023-12-04T09:43:36;6.13;;;3.67;;
48613;SDS011;34408;51.426;5.444;2023-12-04T09:46:04;8.15;;;4.28;;
48613;SDS011;34408;51.426;5.444;2023-12-04T09:48:34;5.93;;;3.67;;
48613;SDS011;34408;51.426;5.444;2023-12-04T09:51:06;6.00;;;3.97;;
48613;SDS011;34408;51.426;5.444;2023-12-04T09:53:36;6.35;;;4.00;;
48613;SDS011;34408;51.426;5.444;2023-12-04T09:56:04;7.03;;;4.45;;
48613;SDS011;34408;51.426;5.444;2023-12-04T09:58:35;6.80;;;4.10;;
48613;SDS011;34408;51.426;5.444;2023-12-04T10:01:07;7.18;;;4.30;;
48613;SDS011;34408;51.426;5.444;2023-12-04T10:03:37;7.93;;;4.07;;
48613;SDS011;34408;51.426;5.444;2023-12-04T10:06:06;7.07;;;4.30;;
48613;SDS011;34408;51.426;5.444;2023-12-04T10:08:35;5.50;;;3.50;;
48613;SDS011;34408;51.426;5.444;2023-12-04T10:11:03;7.18;;;4.55;;
48613;SDS011;34408;51.426;5.444;2023-12-04T10:13:32;7.88;;;4.25;;
48613;SDS011;34408;51.426;5.444;2023-12-04T10:16:35;6.65;;;4.13;;
48613;SDS011;34408;51.426;5.444;2023-12-04T10:19:15;7.35;;;3.78;;
48613;SDS011;34408;51.426;5.444;2023-12-04T10:21:45;7.15;;;4.13;;
48613;SDS011;34408;51.426;5.444;2023-12-04T10:24:26;6.32;;;4.20;;
48613;SDS011;34408;51.426;5.444;2023-12-04T10:26:55;9.93;;;4.65;;
48613;SDS011;34408;51.426;5.444;2023-12-04T10:29:26;6.78;;;4.50;;
48613;SDS011;34408;51.426;5.444;2023-12-04T10:31:55;10.77;;;4.60;;
48613;SDS011;34408;51.426;5.444;2023-12-04T10:34:24;7.85;;;3.80;;
48613;SDS011;34408;51.426;5.444;2023-12-04T10:36:53;6.57;;;4.43;;
48613;SDS011;34408;51.426;5.444;2023-12-04T10:39:21;11.65;;;4.15;;
48613;SDS011;34408;51.426;5.444;2023-12-04T10:41:58;7.38;;;4.15;;
48613;SDS011;34408;51.426;5.444;2023-12-04T10:44:28;8.15;;;4.82;;
48613;SDS011;34408;51.426;5.444;2023-12-04T10:46:57;8.45;;;4.55;;
48613;SDS011;34408;51.426;5.444;2023-12-04T10:49:28;7.15;;;3.92;;
48613;SDS011;34408;51.426;5.444;2023-12-04T10:51:58;7.32;;;4.35;;
48613;SDS011;34408;51.426;5.444;2023-12-04T10:54:27;6.88;;;4.22;;
48613;SDS011;34408;51.426;5.444;2023-12-04T10:56:56;6.72;;;4.28;;
48613;SDS011;34408;51.426;5.444;2023-12-04T10:59:31;8.07;;;4.70;;
48613;SDS011;34408;51.426;5.444;2023-12-04T11:02:05;8.23;;;4.68;;
48613;SDS011;34408;51.426;5.444;2023-12-04T11:04:36;9.27;;;5.50;;
48613;SDS011;34408;51.426;5.444;2023-12-04T11:07:06;7.35;;;4.55;;
48613;SDS011;34408;51.426;5.444;2023-12-04T11:09:36;7.68;;;4.93;;
48613;SDS011;34408;51.426;5.444;2023-12-04T11:12:06;7.68;;;4.45;;
48613;SDS011;34408;51.426;5.444;2023-12-04T11:14:39;7.53;;;4.20;;
48613;SDS011;34408;51.426;5.444;2023-12-04T11:17:10;8.65;;;5.50;;
48613;SDS011;34408;51.426;5.444;2023-12-04T11:19:46;8.63;;;4.90;;
48613;SDS011;34408;51.426;5.444;2023-12-04T11:22:17;7.68;;;5.25;;
48613;SDS011;34408;51.426;5.444;2023-12-04T11:24:48;8.13;;;5.03;;
48613;SDS011;34408;51.426;5.444;2023-12-04T11:27:16;7.15;;;4.28;;
48613;SDS011;34408;51.426;5.444;2023-12-04T11:29:45;8.73;;;5.05;;
48613;SDS011;34408;51.426;5.444;2023-12-04T11:32:14;8.32;;;5.28;;
48613;SDS011;34408;51.426;5.444;2023-12-04T11:34:50;7.00;;;4.55;;
48613;SDS011;34408;51.426;5.444;2023-12-04T11:37:22;7.10;;;4.50;;
48613;SDS011;34408;51.426;5.444;2023-12-04T11:39:51;6.65;;;4.40;;
48613;SDS011;34408;51.426;5.444;2023-12-04T11:42:19;8.73;;;5.00;;
48613;SDS011;34408;51.426;5.444;2023-12-04T11:44:48;6.82;;;4.63;;
48613;SDS011;34408;51.426;5.444;2023-12-04T11:47:16;7.88;;;5.05;;
48613;SDS011;34408;51.426;5.444;2023-12-04T11:49:44;8.50;;;4.82;;
48613;SDS011;34408;51.426;5.444;2023-12-04T11:52:13;7.60;;;4.93;;
48613;SDS011;34408;51.426;5.444;2023-12-04T11:57:26;9.05;;;5.45;;
48613;SDS011;34408;51.426;5.444;2023-12-04T12:00:09;8.65;;;4.53;;
48613;SDS011;34408;51.426;5.444;2023-12-04T12:02:41;8.32;;;5.03;;
48613;SDS011;34408;51.426;5.444;2023-12-04T12:05:35;7.15;;;4.90;;
48613;SDS011;34408;51.426;5.444;2023-12-04T12:08:07;7.70;;;5.00;;
48613;SDS011;34408;51.426;5.444;2023-12-04T12:10:36;8.90;;;5.32;;
48613;SDS011;34408;51.426;5.444;2023-12-04T12:13:04;9.25;;;4.60;;
48613;SDS011;34408;51.426;5.444;2023-12-04T12:15:33;9.00;;;4.88;;
48613;SDS011;34408;51.426;5.444;2023-12-04T12:18:01;8.98;;;5.00;;
48613;SDS011;34408;51.426;5.444;2023-12-04T12:20:31;6.57;;;4.28;;
48613;SDS011;34408;51.426;5.444;2023-12-04T12:22:59;7.38;;;4.72;;
48613;SDS011;34408;51.426;5.444;2023-12-04T12:25:28;8.25;;;4.95;;
48613;SDS011;34408;51.426;5.444;2023-12-04T12:27:56;8.52;;;5.28;;
48613;SDS011;34408;51.426;5.444;2023-12-04T12:30:24;8.70;;;4.22;;
48613;SDS011;34408;51.426;5.444;2023-12-04T12:32:52;7.13;;;4.70;;
48613;SDS011;34408;51.426;5.444;2023-12-04T12:35:20;7.70;;;4.72;;
48613;SDS011;34408;51.426;5.444;2023-12-04T12:37:47;7.00;;;4.43;;
48613;SDS011;34408;51.426;5.444;2023-12-04T12:40:17;7.75;;;4.53;;
48613;SDS011;34408;51.426;5.444;2023-12-04T12:42:46;7.82;;;4.80;;
48613;SDS011;34408;51.426;5.444;2023-12-04T12:45:15;7.85;;;4.90;;
48613;SDS011;34408;51.426;5.444;2023-12-04T12:47:43;7.10;;;4.53;;
48613;SDS011;34408;51.426;5.444;2023-12-04T12:50:11;11.77;;;5.32;;
48613;SDS011;34408;51.426;5.444;2023-12-04T12:52:41;8.15;;;4.97;;
48613;SDS011;34408;51.426;5.444;2023-12-04T12:55:10;6.45;;;4.40;;
48613;SDS011;34408;51.426;5.444;2023-12-04T12:57:38;7.38;;;4.75;;
48613;SDS011;34408;51.426;5.444;2023-12-04T13:00:08;7.03;;;4.55;;
48613;SDS011;34408;51.426;5.444;2023-12-04T13:02:38;9.48;;;4.82;;
48613;SDS011;34408;51.426;5.444;2023-12-04T13:05:06;8.63;;;5.07;;
48613;SDS011;34408;51.426;5.444;2023-12-04T13:07:35;8.43;;;4.50;;
48613;SDS011;34408;51.426;5.444;2023-12-04T13:10:03;8.70;;;4.93;;
48613;SDS011;34408;51.426;5.444;2023-12-04T13:12:32;7.65;;;4.47;;
48613;SDS011;34408;51.426;5.444;2023-12-04T13:15:00;8.98;;;5.38;;
48613;SDS011;34408;51.426;5.444;2023-12-04T13:17:31;7.78;;;5.07;;
48613;SDS011;34408;51.426;5.444;2023-12-04T13:19:59;8.32;;;4.82;;
48613;SDS011;34408;51.426;5.444;2023-12-04T13:22:27;10.23;;;5.18;;
48613;SDS011;34408;51.426;5.444;2023-12-04T13:24:55;10.27;;;5.38;;
48613;SDS011;34408;51.426;5.444;2023-12-04T13:27:23;9.35;;;4.82;;
48613;SDS011;34408;51.426;5.444;2023-12-04T13:29:50;8.25;;;4.40;;
48613;SDS011;34408;51.426;5.444;2023-12-04T13:32:18;9.50;;;5.97;;
48613;SDS011;34408;51.426;5.444;2023-12-04T13:34:48;9.52;;;5.63;;
48613;SDS011;34408;51.426;5.444;2023-12-04T13:37:15;8.75;;;5.63;;
48613;SDS011;34408;51.426;5.444;2023-12-04T13:39:43;8.63;;;5.43;;
48613;SDS011;34408;51.426;5.444;2023-12-04T13:42:15;10.00;;;6.35;;
48613;SDS011;34408;51.426;5.444;2023-12-04T13:45:01;9.40;;;5.90;;
48613;SDS011;34408;51.426;5.444;2023-12-04T13:47:30;8.73;;;5.60;;
48613;SDS011;34408;51.426;5.444;2023-12-04T13:50:02;8.13;;;5.25;;
48613;SDS011;34408;51.426;5.444;2023-12-04T13:52:30;9.90;;;5.03;;
48613;SDS011;34408;51.426;5.444;2023-12-04T13:55:00;9.48;;;5.40;;
48613;SDS011;34408;51.426;5.444;2023-12-04T13:57:37;8.82;;;5.30;;
48613;SDS011;34408;51.426;5.444;2023-12-04T14:00:21;8.82;;;5.20;;
48613;SDS011;34408;51.426;5.444;2023-12-04T14:02:49;7.95;;;4.97;;
48613;SDS011;34408;51.426;5.444;2023-12-04T14:05:21;7.13;;;4.47;;
48613;SDS011;34408;51.426;5.444;2023-12-04T14:07:49;7.78;;;4.38;;
48613;SDS011;34408;51.426;5.444;2023-12-04T14:10:17;9.05;;;4.60;;
48613;SDS011;34408;51.426;5.444;2023-12-04T14:12:45;8.02;;;4.55;;
48613;SDS011;34408;51.426;5.444;2023-12-04T14:15:13;8.77;;;5.40;;
48613;SDS011;34408;51.426;5.444;2023-12-04T14:17:41;7.90;;;4.63;;
48613;SDS011;34408;51.426;5.444;2023-12-04T14:20:09;7.45;;;4.45;;
48613;SDS011;34408;51.426;5.444;2023-12-04T14:22:43;7.68;;;4.97;;
48613;SDS011;34408;51.426;5.444;2023-12-04T14:25:12;8.85;;;4.90;;
48613;SDS011;34408;51.426;5.444;2023-12-04T14:27:40;9.85;;;4.38;;
48613;SDS011;34408;51.426;5.444;2023-12-04T14:30:10;9.20;;;5.13;;
48613;SDS011;34408;51.426;5.444;2023-12-04T14:32:38;8.23;;;4.72;;
48613;SDS011;34408;51.426;5.444;2023-12-04T14:35:13;7.70;;;4.85;;
48613;SDS011;34408;51.426;5.444;2023-12-04T14:37:44;7.25;;;4.88;;
48613;SDS011;34408;51.426;5.444;2023-12-04T14:40:12;9.13;;;5.10;;
48613;SDS011;34408;51.426;5.444;2023-12-04T14:42:41;7.05;;;4.88;;
48613;SDS011;34408;51.426;5.444;2023-12-04T14:45:10;8.68;;;4.53;;
48613;SDS011;34408;51.426;5.444;2023-12-04T14:47:44;11.32;;;5.45;;
48613;SDS011;34408;51.426;5.444;2023-12-04T14:50:17;7.57;;;4.82;;
48613;SDS011;34408;51.426;5.444;2023-12-04T14:52:51;8.93;;;5.05;;
48613;SDS011;34408;51.426;5.444;2023-12-04T14:55:22;10.57;;;5.32;;
48613;SDS011;34408;51.426;5.444;2023-12-04T14:58:10;8.43;;;4.90;;